createdAt,value
2022-08-31T00:00:14.476Z,20.60
2022-08-31T00:02:59.989Z,20.70
2022-08-31T00:05:26.936Z,20.40
2022-08-31T00:07:55.603Z,20.40
2022-08-31T00:10:31.955Z,20.30
2022-08-31T00:13:02.962Z,20.40
2022-08-31T00:15:30.240Z,20.40
2022-08-31T00:17:58.129Z,20.40
2022-08-31T00:20:33.398Z,20.50
2022-08-31T00:23:05.351Z,20.40
2022-08-31T00:25:33.687Z,20.30
2022-08-31T00:28:03.804Z,20.30
2022-08-31T00:30:31.395Z,20.30
2022-08-31T00:32:58.755Z,20.30
2022-08-31T00:35:28.390Z,20.20
2022-08-31T00:37:56.061Z,20.20
2022-08-31T00:40:23.430Z,20.20
2022-08-31T00:42:50.637Z,20.30
2022-08-31T00:45:17.603Z,20.40
2022-08-31T00:47:44.442Z,20.60
2022-08-31T00:50:14.705Z,20.50
2022-08-31T00:52:48.310Z,20.60
2022-08-31T00:55:21.143Z,20.50
2022-08-31T00:57:51.331Z,20.50
2022-08-31T01:00:22.107Z,20.60
2022-08-31T01:02:49.457Z,20.50
2022-08-31T01:05:17.398Z,20.40
2022-08-31T01:07:47.757Z,20.50
2022-08-31T01:10:17.558Z,20.50
2022-08-31T01:12:47.793Z,20.60
2022-08-31T01:15:17.753Z,20.70
2022-08-31T01:17:48.171Z,20.70
2022-08-31T01:20:33.967Z,20.70
2022-08-31T01:23:29.122Z,20.70
2022-08-31T01:25:58.267Z,20.60
2022-08-31T01:28:25.909Z,20.60
2022-08-31T01:31:04.703Z,20.80
2022-08-31T01:33:34.956Z,20.50
2022-08-31T01:36:02.241Z,20.40
2022-08-31T01:38:29.943Z,20.30
2022-08-31T01:40:59.501Z,20.40
2022-08-31T01:43:26.525Z,20.40
2022-08-31T01:45:56.757Z,20.30
2022-08-31T01:48:23.894Z,19.90
2022-08-31T01:50:51.640Z,19.70
2022-08-31T01:53:18.852Z,19.50
2022-08-31T01:55:46.437Z,19.40
2022-08-31T01:58:14.552Z,19.50
2022-08-31T02:01:10.684Z,19.80
2022-08-31T02:03:54.342Z,19.80
2022-08-31T02:06:50.311Z,19.80
2022-08-31T02:09:19.868Z,19.90
2022-08-31T02:11:46.925Z,19.80
2022-08-31T02:14:14.405Z,19.50
2022-08-31T02:16:41.782Z,19.40
2022-08-31T02:19:09.032Z,19.50
2022-08-31T02:21:39.552Z,19.60
2022-08-31T02:24:08.452Z,19.50
2022-08-31T02:26:35.314Z,19.30
2022-08-31T02:29:04.286Z,19.40
2022-08-31T02:31:31.405Z,19.50
2022-08-31T02:34:00.471Z,19.30
2022-08-31T02:36:27.440Z,19.20
2022-08-31T02:38:54.903Z,19.10
2022-08-31T02:41:22.887Z,19.10
2022-08-31T02:43:49.843Z,19.20
2022-08-31T02:46:17.351Z,19.10
2022-08-31T02:48:52.773Z,19.40
2022-08-31T02:51:23.780Z,19.50
2022-08-31T02:53:51.349Z,19.40
2022-08-31T02:56:18.236Z,19.50
2022-08-31T02:58:45.130Z,19.60
2022-08-31T03:01:12.328Z,19.40
2022-08-31T03:03:39.485Z,19.40
2022-08-31T03:06:06.555Z,19.30
2022-08-31T03:08:33.736Z,19.40
2022-08-31T03:11:01.029Z,19.50
2022-08-31T03:13:29.877Z,19.50
2022-08-31T03:15:57.541Z,19.50
2022-08-31T03:18:24.680Z,19.50
2022-08-31T03:20:51.480Z,19.50
2022-08-31T03:23:18.456Z,19.50
2022-08-31T03:25:47.200Z,19.50
2022-08-31T03:28:18.173Z,19.30
2022-08-31T03:31:02.169Z,19.30
2022-08-31T03:33:29.448Z,19.30
2022-08-31T03:35:56.421Z,19.40
2022-08-31T03:38:24.133Z,19.40
2022-08-31T03:40:51.162Z,19.40
2022-08-31T03:43:18.326Z,19.40
2022-08-31T03:45:45.339Z,19.30
2022-08-31T03:52:00.658Z,19.10
2022-08-31T03:54:30.597Z,19.00
2022-08-31T03:56:57.644Z,18.80
2022-08-31T03:59:24.513Z,18.70
2022-08-31T04:02:09.931Z,18.70
2022-08-31T04:04:55.439Z,18.80
2022-08-31T04:07:43.229Z,18.90
2022-08-31T04:10:39.859Z,19.00
2022-08-31T04:13:30.358Z,19.00
2022-08-31T04:16:26.932Z,19.00
2022-08-31T04:19:05.351Z,19.00
2022-08-31T04:21:44.240Z,19.10
2022-08-31T04:24:12.455Z,19.10
2022-08-31T04:26:40.949Z,19.10
2022-08-31T04:29:13.128Z,19.00
2022-08-31T04:31:41.095Z,19.00
2022-08-31T04:34:19.346Z,19.10
2022-08-31T04:36:46.360Z,19.10
2022-08-31T04:39:14.295Z,19.20
2022-08-31T04:41:42.563Z,19.20
2022-08-31T04:44:15.350Z,19.00
2022-08-31T04:46:45.876Z,19.00
2022-08-31T04:49:14.601Z,19.10
2022-08-31T05:13:34.255Z,19.30
2022-08-31T05:16:03.908Z,19.20
2022-08-31T05:18:30.934Z,19.10
2022-08-31T05:21:28.517Z,19.20
2022-08-31T05:23:57.732Z,19.20
2022-08-31T05:26:27.733Z,19.10
2022-08-31T05:28:55.768Z,19.10
2022-08-31T05:31:24.043Z,19.00
2022-08-31T05:33:51.892Z,19.00
2022-08-31T05:36:27.965Z,19.10
2022-08-31T05:39:28.093Z,19.40
2022-08-31T05:41:58.870Z,19.40
2022-08-31T05:44:29.375Z,19.10
2022-08-31T05:47:01.317Z,19.30
2022-08-31T05:49:32.309Z,19.30
2022-08-31T05:52:05.339Z,19.10
2022-08-31T05:54:36.366Z,19.20
2022-08-31T05:57:04.585Z,19.20
2022-08-31T05:59:32.364Z,19.10
2022-08-31T06:02:01.281Z,19.10
2022-08-31T06:04:32.695Z,19.10
2022-08-31T06:06:59.630Z,19.40
2022-08-31T06:09:39.531Z,19.30
2022-08-31T06:12:09.145Z,19.30
2022-08-31T06:14:36.513Z,19.30
2022-08-31T06:17:03.658Z,19.30
2022-08-31T06:19:31.683Z,19.40
2022-08-31T06:21:58.786Z,19.50
2022-08-31T06:24:26.736Z,19.50
2022-08-31T06:26:58.980Z,19.40
2022-08-31T06:29:34.402Z,19.60
2022-08-31T06:32:07.805Z,19.50
2022-08-31T06:34:36.385Z,19.60
2022-08-31T06:37:07.825Z,19.60
2022-08-31T06:39:45.205Z,19.70
2022-08-31T06:42:14.818Z,19.50
2022-08-31T06:45:00.354Z,19.50
2022-08-31T06:47:49.824Z,19.50
2022-08-31T06:50:18.334Z,19.50
2022-08-31T06:52:48.519Z,19.60
2022-08-31T06:55:37.935Z,19.70
2022-08-31T06:58:23.776Z,19.60
2022-08-31T07:01:15.902Z,19.70
2022-08-31T07:04:12.322Z,19.70
2022-08-31T07:06:42.009Z,19.70
2022-08-31T07:09:15.993Z,19.90
2022-08-31T07:11:49.022Z,20.00
2022-08-31T07:14:22.639Z,20.00
2022-08-31T07:16:52.169Z,20.10
2022-08-31T07:19:20.301Z,20.20
2022-08-31T07:21:52.857Z,20.40
2022-08-31T07:24:24.137Z,20.40
2022-08-31T07:27:02.321Z,20.40
2022-08-31T07:29:41.832Z,20.60
2022-08-31T07:32:14.913Z,20.50
2022-08-31T07:34:44.264Z,20.50
2022-08-31T07:37:58.826Z,20.40
2022-08-31T07:40:48.548Z,20.40
2022-08-31T07:43:16.168Z,20.40
2022-08-31T07:45:45.386Z,20.30
2022-08-31T07:48:19.356Z,20.20
2022-08-31T07:51:23.314Z,20.10
2022-08-31T07:54:11.091Z,20.10
2022-08-31T07:56:43.179Z,20.20
2022-08-31T07:59:12.301Z,20.20
2022-08-31T08:01:41.742Z,20.20
2022-08-31T08:04:18.442Z,20.20
2022-08-31T08:07:05.974Z,20.20
2022-08-31T08:10:04.743Z,20.20
2022-08-31T08:12:58.287Z,20.20
2022-08-31T08:15:56.201Z,20.10
2022-08-31T08:18:42.313Z,20.00
2022-08-31T08:21:09.506Z,20.00
2022-08-31T08:23:36.472Z,20.10
2022-08-31T08:26:30.382Z,20.10
2022-08-31T08:29:08.630Z,20.30
2022-08-31T08:31:52.238Z,20.10
2022-08-31T08:34:32.704Z,20.20
2022-08-31T08:37:02.003Z,20.30
2022-08-31T08:39:29.493Z,20.40
2022-08-31T08:42:11.217Z,20.50
2022-08-31T08:44:39.027Z,20.70
2022-08-31T08:47:19.025Z,20.70
2022-08-31T08:49:55.032Z,20.60
2022-08-31T08:52:31.689Z,20.70
2022-08-31T08:55:09.478Z,20.70
2022-08-31T08:57:41.271Z,20.60
2022-08-31T09:00:12.879Z,20.60
2022-08-31T09:03:01.211Z,20.60
2022-08-31T09:06:32.081Z,20.50
2022-08-31T09:09:34.724Z,20.60
2022-08-31T09:12:22.651Z,20.50
2022-08-31T09:15:15.622Z,20.60
2022-08-31T09:18:06.749Z,20.50
2022-08-31T09:20:33.838Z,20.50
2022-08-31T09:23:01.038Z,20.60
2022-08-31T09:25:37.347Z,20.80
2022-08-31T09:28:16.407Z,20.90
2022-08-31T09:30:50.831Z,20.70
2022-08-31T09:33:25.611Z,20.70
2022-08-31T09:36:22.530Z,20.90
2022-08-31T09:38:50.061Z,21.00
2022-08-31T09:41:31.215Z,21.10
2022-08-31T09:44:18.074Z,20.90
2022-08-31T09:46:56.657Z,20.80
2022-08-31T09:49:55.261Z,21.10
2022-08-31T09:52:48.068Z,21.40
2022-08-31T09:55:21.684Z,21.40
2022-08-31T09:57:56.720Z,21.30
2022-08-31T10:00:36.583Z,21.50
2022-08-31T10:03:28.293Z,21.60
2022-08-31T10:05:56.946Z,21.40
2022-08-31T10:08:42.177Z,21.70
2022-08-31T10:11:15.084Z,21.80
2022-08-31T10:13:54.954Z,21.90
2022-08-31T10:16:38.399Z,21.90
2022-08-31T10:19:16.754Z,21.80
2022-08-31T10:21:53.431Z,21.80
2022-08-31T10:24:33.750Z,22.00
2022-08-31T10:27:08.221Z,22.20
2022-08-31T10:29:44.222Z,22.50
2022-08-31T10:32:23.890Z,22.60
2022-08-31T10:35:19.576Z,22.80
2022-08-31T10:38:28.469Z,23.10
2022-08-31T10:41:26.158Z,23.50
2022-08-31T10:48:12.898Z,23.60
2022-08-31T10:50:45.043Z,23.70
2022-08-31T10:53:42.627Z,24.00
2022-08-31T10:56:16.225Z,24.00
2022-08-31T10:58:49.955Z,23.90
2022-08-31T11:01:22.610Z,24.10
2022-08-31T11:04:21.506Z,24.40
2022-08-31T11:07:12.157Z,24.30
2022-08-31T11:10:13.433Z,24.10
2022-08-31T11:12:49.464Z,24.00
2022-08-31T11:15:53.379Z,24.00
2022-08-31T11:18:58.244Z,24.10
2022-08-31T11:21:45.161Z,24.20
2022-08-31T11:24:32.589Z,24.20
2022-08-31T11:27:19.161Z,24.40
2022-08-31T11:29:57.019Z,24.60
2022-08-31T11:32:26.451Z,24.50
2022-08-31T11:34:57.190Z,24.40
2022-08-31T11:37:52.330Z,24.50
2022-08-31T11:40:41.511Z,24.90
2022-08-31T11:43:31.235Z,25.30
2022-08-31T11:46:23.833Z,25.10
2022-08-31T11:48:53.927Z,24.90
2022-08-31T11:51:37.268Z,25.10
2022-08-31T11:54:26.676Z,25.60
2022-08-31T11:56:56.825Z,26.10
2022-08-31T11:59:26.513Z,26.20
2022-08-31T12:01:56.508Z,26.50
2022-08-31T12:04:41.931Z,26.80
2022-08-31T12:07:11.319Z,26.90
2022-08-31T12:10:14.787Z,26.80
2022-08-31T12:13:19.831Z,26.80
2022-08-31T12:16:12.575Z,26.80
2022-08-31T12:19:06.728Z,26.80
2022-08-31T12:22:16.239Z,26.80
2022-08-31T12:24:54.204Z,27.10
2022-08-31T12:27:50.088Z,27.40
2022-08-31T12:30:23.890Z,27.40
2022-08-31T12:33:12.822Z,27.40
2022-08-31T12:35:39.699Z,27.30
2022-08-31T12:38:16.364Z,27.20
2022-08-31T12:40:50.656Z,27.50
2022-08-31T12:43:20.509Z,27.50
2022-08-31T12:46:05.644Z,27.30
2022-08-31T12:48:47.166Z,27.20
2022-08-31T12:51:35.804Z,27.00
2022-08-31T12:54:20.704Z,26.70
2022-08-31T12:57:26.961Z,26.60
2022-08-31T13:00:13.005Z,26.30
2022-08-31T13:02:43.601Z,26.00
2022-08-31T13:05:26.289Z,25.90
2022-08-31T13:07:53.742Z,25.90
2022-08-31T13:10:38.039Z,25.90
2022-08-31T13:13:09.637Z,25.70
2022-08-31T13:15:40.578Z,25.60
2022-08-31T13:18:34.082Z,25.70
2022-08-31T13:21:08.315Z,25.60
2022-08-31T13:23:40.911Z,25.60
2022-08-31T13:26:21.297Z,25.60
2022-08-31T13:28:57.803Z,25.70
2022-08-31T13:31:31.423Z,25.80
2022-08-31T13:34:05.247Z,25.80
2022-08-31T13:36:52.976Z,25.80
2022-08-31T13:39:25.943Z,25.50
2022-08-31T13:42:07.373Z,25.50
2022-08-31T13:44:39.694Z,25.30
2022-08-31T13:47:28.219Z,25.40
2022-08-31T13:50:13.223Z,25.50
2022-08-31T13:53:09.637Z,25.60
2022-08-31T13:55:43.492Z,25.80
2022-08-31T13:58:26.156Z,26.10
2022-08-31T14:00:58.083Z,26.20
2022-08-31T14:03:46.621Z,26.40
2022-08-31T14:06:25.481Z,26.50
2022-08-31T14:09:03.306Z,26.70
2022-08-31T14:11:31.645Z,26.90
2022-08-31T14:14:08.240Z,27.30
2022-08-31T14:16:38.772Z,27.70
2022-08-31T14:19:07.170Z,27.80
2022-08-31T14:21:40.106Z,27.70
2022-08-31T14:24:10.445Z,27.70
2022-08-31T14:26:41.532Z,27.70
2022-08-31T14:29:13.606Z,27.60
2022-08-31T14:31:43.181Z,27.40
2022-08-31T14:34:22.466Z,27.00
2022-08-31T14:36:57.427Z,26.90
2022-08-31T14:39:37.493Z,26.80
2022-08-31T14:42:07.570Z,26.70
2022-08-31T14:44:38.939Z,26.60
2022-08-31T14:47:05.941Z,26.40
2022-08-31T14:49:36.249Z,26.40
2022-08-31T14:52:06.686Z,26.60
2022-08-31T14:54:37.805Z,26.60
2022-08-31T14:57:26.153Z,26.50
2022-08-31T14:59:59.518Z,26.40
2022-08-31T15:02:31.151Z,26.20
2022-08-31T15:05:06.401Z,26.20
2022-08-31T15:07:36.268Z,26.00
2022-08-31T15:10:06.634Z,25.90
2022-08-31T15:12:34.775Z,26.10
2022-08-31T15:15:01.653Z,26.40
2022-08-31T15:17:30.289Z,26.60
2022-08-31T15:19:57.347Z,26.70
2022-08-31T15:22:26.308Z,26.70
2022-08-31T15:24:54.653Z,26.40
2022-08-31T15:27:22.669Z,26.50
2022-08-31T15:29:58.859Z,26.60
2022-08-31T15:32:25.650Z,26.60
2022-08-31T15:34:58.413Z,26.70
2022-08-31T15:37:32.097Z,26.80
2022-08-31T15:40:01.805Z,26.60
2022-08-31T15:42:29.656Z,26.50
2022-08-31T15:44:56.997Z,26.40
2022-08-31T15:47:53.599Z,26.30
2022-08-31T15:50:25.041Z,26.20
2022-08-31T15:52:55.869Z,26.20
2022-08-31T15:55:26.612Z,26.10
2022-08-31T15:57:55.708Z,26.00
2022-08-31T16:00:23.835Z,26.10
2022-08-31T16:02:55.303Z,25.90
2022-08-31T16:05:23.179Z,25.80
2022-08-31T16:07:52.661Z,25.70
2022-08-31T16:10:20.480Z,25.70
2022-08-31T16:12:47.852Z,25.70
2022-08-31T16:15:15.516Z,25.70
2022-08-31T16:17:43.106Z,25.80
2022-08-31T16:20:14.666Z,25.80
2022-08-31T16:22:43.255Z,25.70
2022-08-31T16:25:14.361Z,25.50
2022-08-31T16:27:43.349Z,25.30
2022-08-31T16:30:12.406Z,25.10
2022-08-31T16:32:39.722Z,24.90
2022-08-31T16:35:07.202Z,24.90
2022-08-31T16:37:34.114Z,24.90
2022-08-31T16:40:01.225Z,24.90
2022-08-31T16:42:28.273Z,24.80
2022-08-31T16:44:59.726Z,24.80
2022-08-31T16:47:26.856Z,24.90
2022-08-31T16:49:53.714Z,24.60
2022-08-31T16:52:24.313Z,24.50
2022-08-31T16:54:52.250Z,24.60
2022-08-31T16:57:27.645Z,24.50
2022-08-31T16:59:58.284Z,24.30
2022-08-31T17:02:26.251Z,24.20
2022-08-31T17:04:54.419Z,24.10
2022-08-31T17:07:24.411Z,24.10
2022-08-31T17:09:55.904Z,24.00
2022-08-31T17:12:26.203Z,23.80
2022-08-31T17:14:53.257Z,23.60
2022-08-31T17:17:23.487Z,23.60
2022-08-31T17:19:52.265Z,23.60
2022-08-31T17:22:27.052Z,23.50
2022-08-31T17:24:58.670Z,23.50
2022-08-31T17:27:27.307Z,23.40
2022-08-31T17:30:00.867Z,23.50
2022-08-31T17:32:28.414Z,23.50
2022-08-31T17:34:56.228Z,23.40
2022-08-31T17:37:27.833Z,23.30
2022-08-31T17:39:56.179Z,23.30
2022-08-31T17:42:26.947Z,23.20
2022-08-31T17:44:55.304Z,23.20
2022-08-31T17:47:24.102Z,23.10
2022-08-31T17:49:52.528Z,23.10
2022-08-31T17:52:21.767Z,23.10
2022-08-31T17:54:51.044Z,22.90
2022-08-31T17:57:25.196Z,22.60
2022-08-31T17:59:52.777Z,22.60
2022-08-31T18:02:32.420Z,22.60
2022-08-31T18:05:00.670Z,22.60
2022-08-31T18:07:28.978Z,22.70
2022-08-31T18:09:56.111Z,22.70
2022-08-31T18:12:25.589Z,22.50
2022-08-31T18:14:53.854Z,22.30
2022-08-31T18:17:24.046Z,22.30
2022-08-31T18:19:50.908Z,22.30
2022-08-31T18:22:18.307Z,22.20
2022-08-31T18:24:45.159Z,22.20
2022-08-31T18:27:15.471Z,22.20
2022-08-31T18:29:43.203Z,22.10
2022-08-31T18:32:10.846Z,22.10
2022-08-31T18:34:41.006Z,22.10
2022-08-31T18:37:08.151Z,22.10
2022-08-31T18:39:54.938Z,22.00
2022-08-31T18:42:45.212Z,22.00
2022-08-31T18:45:21.180Z,21.70
2022-08-31T18:48:23.368Z,21.70
2022-08-31T18:50:44.619Z,21.60
2022-08-31T18:53:15.461Z,21.50
2022-08-31T18:55:43.660Z,21.40
2022-08-31T18:58:10.599Z,21.40
2022-08-31T19:00:38.145Z,21.30
2022-08-31T19:03:05.824Z,21.10
2022-08-31T19:05:33.063Z,20.80
2022-08-31T19:08:00.545Z,20.80
2022-08-31T19:10:28.196Z,20.90
2022-08-31T19:12:58.055Z,21.00
2022-08-31T19:15:36.220Z,21.00
2022-08-31T19:18:05.412Z,20.90
2022-08-31T19:20:33.496Z,20.80
2022-08-31T19:23:00.640Z,20.70
2022-08-31T19:25:27.992Z,20.50
2022-08-31T19:27:54.898Z,20.40
2022-08-31T19:30:27.281Z,20.50
2022-08-31T19:32:56.412Z,20.40
2022-08-31T19:35:26.306Z,20.40
2022-08-31T19:37:56.470Z,20.40
2022-08-31T19:40:35.662Z,20.30
2022-08-31T19:45:50.780Z,20.60
2022-08-31T19:48:23.606Z,20.70
2022-08-31T19:50:51.721Z,20.60
2022-08-31T19:53:21.144Z,20.50
2022-08-31T19:55:50.852Z,20.40
2022-08-31T19:58:26.408Z,20.40
2022-08-31T20:01:01.046Z,20.30
2022-08-31T20:03:31.262Z,20.40
2022-08-31T20:05:59.950Z,20.30
2022-08-31T20:08:26.852Z,20.20
2022-08-31T20:10:53.742Z,20.10
2022-08-31T20:13:25.214Z,20.20
2022-08-31T20:15:53.043Z,20.30
2022-08-31T20:18:20.827Z,20.20
2022-08-31T20:20:50.876Z,20.10
2022-08-31T20:23:21.267Z,20.00
2022-08-31T20:25:49.931Z,19.90
2022-08-31T20:28:26.290Z,19.90
2022-08-31T20:31:00.016Z,19.80
2022-08-31T20:33:27.850Z,19.90
2022-08-31T20:35:54.729Z,19.90
2022-08-31T20:38:21.607Z,19.80
2022-08-31T20:40:52.227Z,19.80
2022-08-31T20:43:21.082Z,19.80
2022-08-31T20:45:48.317Z,19.70
2022-08-31T20:48:33.939Z,19.60
2022-08-31T20:51:16.139Z,19.60
2022-08-31T20:53:44.336Z,19.50
2022-08-31T20:56:14.891Z,19.60
2022-08-31T20:58:45.683Z,19.60
2022-08-31T21:01:14.005Z,19.50
2022-08-31T21:03:41.228Z,19.40
2022-08-31T21:06:11.459Z,19.50
2022-08-31T21:08:42.212Z,19.40
2022-08-31T21:11:13.023Z,19.20
2022-08-31T21:13:39.890Z,19.20
2022-08-31T21:16:06.751Z,19.30
2022-08-31T21:18:34.778Z,19.20
2022-08-31T21:21:14.414Z,19.10
2022-08-31T21:23:41.182Z,19.00
2022-08-31T21:26:08.720Z,18.90
2022-08-31T21:28:39.233Z,18.90
2022-08-31T21:31:16.486Z,18.80
2022-08-31T21:33:46.202Z,18.70
2022-08-31T21:36:15.578Z,18.70
2022-08-31T21:38:43.765Z,18.70
2022-08-31T21:41:12.491Z,18.90
2022-08-31T21:43:40.062Z,18.70
2022-08-31T21:46:13.946Z,18.50
2022-08-31T21:48:42.834Z,18.50
2022-08-31T21:51:33.569Z,18.60
2022-08-31T21:54:03.281Z,18.40
2022-08-31T21:56:32.875Z,18.40
2022-08-31T21:59:00.444Z,18.50
2022-08-31T22:01:29.398Z,18.50
2022-08-31T22:03:58.578Z,18.40
2022-08-31T22:06:31.298Z,18.40
2022-08-31T22:09:01.252Z,18.30
2022-08-31T22:11:30.796Z,18.30
2022-08-31T22:13:59.098Z,18.20
2022-08-31T22:16:26.292Z,18.30
2022-08-31T22:19:01.184Z,18.10
2022-08-31T22:21:31.972Z,18.20
2022-08-31T22:24:02.215Z,18.30
2022-08-31T22:26:32.894Z,18.30
2022-08-31T22:28:59.688Z,18.40
2022-08-31T22:31:27.430Z,18.40
2022-08-31T22:33:54.714Z,18.30
2022-08-31T22:36:30.944Z,18.30
2022-08-31T22:39:03.424Z,18.30
2022-08-31T22:41:32.666Z,18.20
2022-08-31T22:43:59.994Z,18.20
2022-08-31T22:46:27.325Z,18.10
2022-08-31T22:48:54.033Z,18.30
2022-08-31T22:51:22.334Z,18.10
2022-08-31T22:53:51.454Z,17.90
2022-08-31T22:56:21.908Z,17.90
2022-08-31T22:58:49.536Z,17.90
2022-08-31T23:01:23.483Z,17.90
2022-08-31T23:03:51.674Z,18.00
2022-08-31T23:06:23.268Z,18.00
2022-08-31T23:08:51.448Z,17.80
2022-08-31T23:11:19.894Z,17.80
2022-08-31T23:13:57.187Z,17.80
2022-08-31T23:16:37.057Z,17.70
2022-08-31T23:19:16.490Z,17.60
2022-08-31T23:21:47.751Z,17.50
2022-08-31T23:24:33.490Z,17.50
2022-08-31T23:27:04.379Z,17.60
2022-08-31T23:29:34.698Z,17.60
2022-08-31T23:32:02.701Z,17.60
2022-08-31T23:34:29.730Z,17.50
2022-08-31T23:36:57.038Z,17.50
2022-08-31T23:39:24.639Z,17.40
2022-08-31T23:41:53.161Z,17.20
2022-08-31T23:44:21.328Z,17.30
2022-08-31T23:46:49.121Z,17.20
2022-08-31T23:49:18.705Z,17.30
2022-08-31T23:51:45.911Z,17.40
2022-08-31T23:54:15.616Z,17.50
2022-08-31T23:56:44.620Z,17.40
2022-08-31T23:59:15.651Z,17.60
